Time;durP1;ratioP1;P1;durP2;ratioP2;P2;SDS_P1;SDS_P2;PMS_P1;PMS_P2;Temp;Humidity;BMP_temperature;BMP_pressure;BME280_temperature;BME280_humidity;BME280_pressure;Samples;Min_cycle;Max_cycle;Signal;HPM_P1;HPM_P2
2023/07/24 00:00:46;;;;;;;;;;;20.40;71.90;;;19.78;65.74;96389.75;5015943;28;19921;-82
2023/07/24 00:03:14;;;;;;;;;;;20.40;72.20;;;19.81;65.47;96393.88;5016334;28;19927;-82
2023/07/24 00:05:41;;;;;;;;;;;20.30;72.40;;;19.83;65.37;96391.56;5016294;28;20123;-82
2023/07/24 00:08:09;;;;;;;;;;;20.40;72.30;;;19.85;65.51;96394.81;5016325;28;19928;-82
2023/07/24 00:10:39;;;;;;;;;;;20.40;72.40;;;19.90;65.48;96391.94;5016139;28;19927;-81
2023/07/24 00:13:07;;;;;;;;;;;20.40;72.30;;;19.92;65.40;96392.41;5000083;28;20222;-82
2023/07/24 00:15:34;;;;;;;;;;;20.40;72.30;;;19.92;65.12;96386.88;5000113;28;19928;-82
2023/07/24 00:18:02;;;;;;;;;;;20.40;72.10;;;19.92;65.01;96378.53;5016472;28;19929;-82
2023/07/24 00:20:30;;;;;;;;;;;20.40;71.90;;;19.91;65.16;96384.41;5034038;28;19921;-81
2023/07/24 00:22:58;;;;;;;;;;;20.40;71.80;;;19.90;64.94;96382.75;5015729;28;19921;-82
2023/07/24 00:25:26;;;;;;;;;;;20.40;71.60;;;19.86;64.91;96379.81;4999380;28;19922;-82
2023/07/24 00:27:55;;;;;;;;;;;20.50;71.40;;;19.81;64.99;96385.53;5033173;28;20232;-82
2023/07/24 00:30:23;;;;;;;;;;;20.40;71.40;;;19.80;64.87;96378.34;5033040;28;19921;-82
2023/07/24 00:32:52;;;;;;;;;;;20.30;71.70;;;19.78;65.11;96373.09;4999471;28;20102;-82
2023/07/24 00:35:19;;;;;;;;;;;20.30;71.60;;;19.78;64.88;96372.28;5033234;28;20251;-82
2023/07/24 00:37:47;;;;;;;;;;;20.30;71.60;;;19.76;64.74;96369.81;5015319;28;19921;-82
2023/07/24 00:40:15;;;;;;;;;;;20.30;71.50;;;19.76;64.97;96383.69;4999017;28;20213;-82
2023/07/24 00:42:47;;;;;;;;;;;20.30;71.50;;;19.72;64.79;96373.56;4999169;28;19921;-82
2023/07/24 00:45:17;;;;;;;;;;;20.30;71.50;;;19.68;64.77;96367.06;4999371;28;19928;-82
2023/07/24 00:47:45;;;;;;;;;;;20.30;71.20;;;19.63;64.55;96370.78;4998890;28;19921;-82
2023/07/24 00:50:13;;;;;;;;;;;20.20;71.20;;;19.58;64.92;96366.22;5014565;28;19921;-82
2023/07/24 00:52:41;;;;;;;;;;;20.20;71.40;;;19.58;65.33;96374.53;4998649;28;19921;-82
2023/07/24 00:55:09;;;;;;;;;;;20.20;71.70;;;19.56;65.04;96371.25;4998541;28;19928;-81
2023/07/24 00:57:37;;;;;;;;;;;20.10;71.60;;;19.56;65.35;96368.50;5013724;28;20132;-82
2023/07/24 01:00:07;;;;;;;;;;;20.10;71.90;;;19.56;64.86;96368.50;4997767;28;19927;-82
2023/07/24 01:02:37;;;;;;;;;;;20.20;71.60;;;19.54;65.26;96373.56;5015304;28;19921;-82
2023/07/24 01:05:06;;;;;;;;;;;20.10;71.60;;;19.56;65.31;96371.25;5014920;28;19922;-82
2023/07/24 01:07:34;;;;;;;;;;;20.10;71.90;;;19.59;64.95;96372.59;5015108;28;19928;-82
2023/07/24 01:10:06;;;;;;;;;;;20.10;71.80;;;19.60;64.76;96365.91;4998418;28;20243;-80
2023/07/24 01:12:36;;;;;;;;;;;20.10;71.60;;;19.59;64.85;96370.63;4998933;28;20209;-81
2023/07/24 01:15:08;;;;;;;;;;;20.10;71.50;;;19.54;64.70;96368.03;4998681;28;19921;-81
2023/07/24 01:17:39;;;;;;;;;;;20.10;71.40;;;19.52;64.59;96367.53;5014894;28;19984;-81
2023/07/24 01:20:08;;;;;;;;;;;20.10;71.50;;;19.48;64.55;96369.31;4998469;28;19927;-80
2023/07/24 01:22:39;;;;;;;;;;;20.00;71.10;;;19.43;64.87;96361.13;4998481;28;19921;-82
2023/07/24 01:25:11;;;;;;;;;;;20.00;71.50;;;19.43;64.91;96366.69;4998522;28;19921;-81
2023/07/24 01:27:43;;;;;;;;;;;20.00;71.80;;;19.45;65.21;96364.41;5014649;28;19927;-81
2023/07/24 01:30:11;;;;;;;;;;;20.00;71.70;;;19.45;64.91;96369.94;5014740;28;19921;-81
2023/07/24 01:32:39;;;;;;;;;;;20.00;71.50;;;19.49;64.79;96372.91;5014952;28;19921;-81
2023/07/24 01:35:07;;;;;;;;;;;20.00;71.50;;;19.49;64.67;96370.16;4998259;28;20123;-81
2023/07/24 01:37:39;;;;;;;;;;;20.00;71.40;;;19.47;64.75;96367.66;5014632;28;19929;-82
2023/07/24 01:40:08;;;;;;;;;;;20.00;71.40;;;19.50;64.83;96367.03;5014382;28;19921;-82
2023/07/24 01:42:36;;;;;;;;;;;20.10;71.60;;;19.51;64.63;96373.38;5014625;28;20093;-81
2023/07/24 01:45:06;;;;;;;;;;;20.10;71.50;;;19.49;64.37;96381.25;5014559;28;19921;-81
2023/07/24 01:47:34;;;;;;;;;;;20.10;71.10;;;19.45;64.41;96379.13;5014656;28;19928;-81
2023/07/24 01:50:02;;;;;;;;;;;20.00;70.90;;;19.41;64.28;96368.97;4997930;28;19944;-81
2023/07/24 01:52:30;;;;;;;;;;;20.00;70.80;;;19.40;64.61;96378.44;4998093;28;19943;-81
2023/07/24 01:54:58;;;;;;;;;;;20.00;70.80;;;19.37;64.21;96385.44;4997989;28;19920;-81
2023/07/24 01:57:26;;;;;;;;;;;20.00;70.90;;;19.34;64.73;96380.56;5014586;28;19928;-81
2023/07/24 01:59:54;;;;;;;;;;;20.00;70.90;;;19.34;64.76;96377.78;5014199;28;19927;-81
2023/07/24 02:02:23;;;;;;;;;;;19.90;71.20;;;19.35;64.98;96384.97;5013567;28;20231;-81
2023/07/24 02:04:51;;;;;;;;;;;19.90;71.40;;;19.37;64.77;96385.44;4997733;28;19928;-81
2023/07/24 02:07:19;;;;;;;;;;;20.00;71.50;;;19.36;64.52;96385.78;4997913;28;19921;-81
2023/07/24 02:09:46;;;;;;;;;;;19.90;71.00;;;19.35;64.30;96387.75;4997618;28;19921;-81
2023/07/24 02:12:14;;;;;;;;;;;19.90;70.90;;;19.35;64.40;96387.75;4997947;28;20209;-81
2023/07/24 02:14:42;;;;;;;;;;;19.90;70.90;;;19.32;64.38;96386.41;5013960;28;19921;-81
2023/07/24 02:17:29;;;;;;;;;;;19.90;71.00;;;19.29;64.55;96387.09;4997029;28;19921;-81
2023/07/24 02:19:57;;;;;;;;;;;19.90;70.90;;;19.23;64.38;96382.00;5011167;28;19928;-81
2023/07/24 02:22:40;;;;;;;;;;;19.80;70.70;;;19.20;64.31;96388.19;5028223;28;20116;-81
2023/07/24 02:25:25;;;;;;;;;;;19.80;70.90;;;19.16;64.60;96386.06;5009258;28;19928;-82
2023/07/24 02:28:12;;;;;;;;;;;19.80;70.90;;;19.11;64.58;96393.72;4994676;28;19921;-82
2023/07/24 02:31:11;;;;;;;;;;;19.70;70.90;;;19.07;64.54;96388.00;5030508;28;19943;-82
2023/07/24 02:34:10;;;;;;;;;;;19.70;71.20;;;19.07;64.42;96376.91;5011645;28;20067;-81
2023/07/24 02:36:38;;;;;;;;;;;19.70;71.20;;;19.07;64.72;96381.63;5030018;28;19948;-82
2023/07/24 02:39:19;;;;;;;;;;;19.70;71.20;;;19.07;64.76;96381.63;5032988;23;19921;-92
2023/07/24 02:42:12;;;;;;;;;;;19.70;71.40;;;19.06;64.68;96374.44;5025240;28;19927;-90
2023/07/24 02:45:20;;;;;;;;;;;19.70;71.40;;;19.04;64.60;96376.72;5034813;28;19932;-89
2023/07/24 02:47:51;;;;;;;;;;;19.70;71.40;;;19.07;64.91;96373.28;5008029;28;20208;-89
2023/07/24 02:50:21;;;;;;;;;;;19.70;71.40;;;19.08;64.61;96374.94;4977710;28;20089;-89
2023/07/24 02:52:49;;;;;;;;;;;19.70;71.30;;;19.07;64.54;96381.63;4994466;28;19925;-90
2023/07/24 02:55:17;;;;;;;;;;;19.70;71.10;;;19.05;64.77;96379.16;4978089;28;19928;-88
2023/07/24 02:57:45;;;;;;;;;;;19.60;71.10;;;19.01;64.72;96373.47;4994404;28;19921;-89
2023/07/24 03:00:14;;;;;;;;;;;19.60;71.10;;;19.00;64.45;96379.31;4994082;28;19928;-89
2023/07/24 03:02:42;;;;;;;;;;;19.60;70.90;;;18.96;64.51;96375.56;4994369;28;20224;-89
2023/07/24 03:05:10;;;;;;;;;;;19.60;70.90;;;18.94;64.64;96367.53;4994258;28;20246;-89
2023/07/24 03:07:39;;;;;;;;;;;19.60;71.20;;;18.92;64.73;96364.22;4994148;28;20224;-89
2023/07/24 03:10:08;;;;;;;;;;;19.60;71.20;;;18.92;64.38;96369.78;4993921;28;19921;-89
2023/07/24 03:12:36;;;;;;;;;;;19.60;71.00;;;18.92;64.88;96374.53;4994420;28;19928;-90
2023/07/24 03:15:05;;;;;;;;;;;19.60;71.20;;;18.89;64.61;96376.00;4996817;28;20090;-89
2023/07/24 03:17:33;;;;;;;;;;;19.50;71.20;;;18.84;64.76;96373.34;4997600;28;20209;-89
2023/07/24 03:20:09;;;;;;;;;;;19.50;71.10;;;18.84;64.96;96374.19;4980899;28;19922;-89
2023/07/24 03:22:38;;;;;;;;;;;19.50;71.50;;;18.84;65.04;96374.19;4997552;28;20141;-89
2023/07/24 03:25:09;;;;;;;;;;;19.50;71.80;;;18.88;64.96;96377.13;4997415;28;19928;-89
2023/07/24 03:27:37;;;;;;;;;;;19.50;71.90;;;18.89;65.07;96367.66;4997318;28;19925;-89
2023/07/24 03:30:06;;;;;;;;;;;19.50;71.80;;;18.91;65.21;96376.47;4997018;28;19925;-89
2023/07/24 03:32:35;;;;;;;;;;;19.50;71.70;;;18.92;65.12;96375.34;4997237;28;20223;-89
2023/07/24 03:35:04;;;;;;;;;;;19.50;71.70;;;18.93;65.33;96376.97;4997366;28;19921;-88
2023/07/24 03:37:32;;;;;;;;;;;19.50;72.00;;;18.99;65.72;96372.97;4997177;28;19921;-88
2023/07/24 03:40:02;;;;;;;;;;;19.60;72.30;;;19.06;65.54;96374.44;4996801;28;19929;-89
2023/07/24 03:42:32;;;;;;;;;;;19.60;72.20;;;19.13;65.36;96380.34;5013672;28;20129;-89
2023/07/24 03:45:00;;;;;;;;;;;19.70;72.20;;;19.16;65.05;96374.16;4997201;28;19922;-89
2023/07/24 03:47:28;;;;;;;;;;;19.70;71.70;;;19.17;65.06;96370.22;4980968;28;19922;-89
2023/07/24 03:49:56;;;;;;;;;;;19.70;71.90;;;19.12;64.71;96359.28;5013052;28;19921;-89
2023/07/24 03:52:24;;;;;;;;;;;19.70;71.70;;;19.07;65.00;96360.25;4981044;28;19922;-89
2023/07/24 03:54:52;;;;;;;;;;;19.60;71.90;;;19.11;65.48;96360.41;4997046;28;19922;-88
2023/07/24 03:57:22;;;;;;;;;;;19.70;72.00;;;19.07;65.48;96359.41;4995786;28;19922;-89
2023/07/24 03:59:50;;;;;;;;;;;19.70;72.10;;;19.06;65.26;96364.16;5012751;28;19921;-89
2023/07/24 04:02:18;;;;;;;;;;;19.70;72.10;;;19.07;65.81;96359.41;4996976;28;19928;-89
2023/07/24 04:04:46;;;;;;;;;;;19.70;72.50;;;19.09;66.04;96357.97;4996898;28;20250;-89
2023/07/24 04:07:13;;;;;;;;;;;19.70;72.70;;;19.13;65.36;96367.28;5013025;28;20120;-89
2023/07/24 04:09:41;;;;;;;;;;;19.70;72.40;;;19.11;65.17;96365.97;5013055;28;19925;-90
2023/07/24 04:12:09;;;;;;;;;;;19.70;72.10;;;19.07;65.67;96363.03;4996646;28;19921;-89
2023/07/24 04:14:38;;;;;;;;;;;19.60;72.10;;;19.01;65.75;96373.47;5012964;28;19922;-89
2023/07/24 04:17:07;;;;;;;;;;;19.60;72.40;;;18.97;65.96;96366.09;5016593;28;19922;-89
2023/07/24 04:19:34;;;;;;;;;;;19.50;72.60;;;18.95;65.70;96366.41;4980596;28;19922;-89
2023/07/24 04:22:03;;;;;;;;;;;19.50;72.70;;;18.94;65.98;96367.53;5013559;28;19922;-89
2023/07/24 04:24:30;;;;;;;;;;;19.50;72.90;;;18.94;66.16;96367.53;4996671;28;19921;-89
2023/07/24 04:26:58;;;;;;;;;;;19.50;73.00;;;18.96;66.33;96365.28;4995730;28;19921;-89
2023/07/24 04:29:26;;;;;;;;;;;19.50;73.50;;;18.97;66.52;96361.34;4980396;28;19929;-89
2023/07/24 04:31:56;;;;;;;;;;;19.60;73.40;;;19.01;66.46;96364.31;4979841;28;19922;-88
2023/07/24 04:34:23;;;;;;;;;;;19.60;73.30;;;19.05;66.60;96368.06;4996415;28;19926;-89
2023/07/24 04:36:51;;;;;;;;;;;19.60;73.50;;;19.11;66.54;96365.97;5012667;28;19922;-89
2023/07/24 04:39:19;;;;;;;;;;;19.60;73.80;;;19.18;66.50;96369.06;4996454;28;19921;-89
2023/07/24 04:41:47;;;;;;;;;;;19.70;73.60;;;19.23;66.42;96368.94;5011971;28;19921;-89
2023/07/24 04:44:15;;;;;;;;;;;19.70;73.40;;;19.31;66.30;96370.09;4980059;28;19929;-89
2023/07/24 04:46:43;;;;;;;;;;;19.80;73.50;;;19.36;66.31;96369.13;4979864;28;19928;-89
2023/07/24 04:49:12;;;;;;;;;;;19.90;73.60;;;19.44;66.28;96368.31;4979883;28;19925;-88
2023/07/24 04:51:40;;;;;;;;;;;19.90;73.70;;;19.51;66.12;96367.84;4999382;28;19921;-88
2023/07/24 04:54:08;;;;;;;;;;;20.00;73.40;;;19.58;66.26;96373.75;4999253;28;19921;-88
2023/07/24 04:56:36;;;;;;;;;;;20.10;73.50;;;19.66;66.35;96378.47;5024231;28;19951;-88
2023/07/24 04:59:04;;;;;;;;;;;20.20;73.30;;;19.72;66.43;96377.19;5015102;28;19926;-89
2023/07/24 05:01:32;;;;;;;;;;;20.20;73.40;;;19.81;66.12;96371.63;5014885;28;20151;-90
2023/07/24 05:04:00;;;;;;;;;;;20.30;73.10;;;19.88;65.89;96371.19;4998747;28;19921;-89
2023/07/24 05:06:30;;;;;;;;;;;20.40;72.90;;;19.93;65.62;96362.66;5015249;28;19927;-89
2023/07/24 05:08:57;;;;;;;;;;;20.40;72.70;;;19.97;65.69;96369.22;4998942;28;20205;-89
2023/07/24 05:11:25;;;;;;;;;;;20.50;72.60;;;20.03;65.79;96361.53;5015032;28;19921;-89
2023/07/24 05:13:53;;;;;;;;;;;20.50;72.80;;;20.10;65.91;96372.13;5015300;28;20209;-89
2023/07/24 05:16:21;;;;;;;;;;;20.60;72.60;;;20.16;65.91;96374.41;5015234;28;20205;-89
2023/07/24 05:18:49;;;;;;;;;;;20.70;72.70;;;20.21;65.66;96370.66;4998897;28;19927;-89
2023/07/24 05:21:17;;;;;;;;;;;20.70;72.50;;;20.26;65.80;96369.66;4998712;28;20124;-89
2023/07/24 05:23:46;;;;;;;;;;;20.70;72.50;;;20.31;66.16;96372.28;5015309;28;19928;-89
2023/07/24 05:26:14;;;;;;;;;;;20.80;72.70;;;20.36;66.17;96369.31;4998630;28;19921;-89
2023/07/24 05:28:42;;;;;;;;;;;20.90;73.10;;;20.43;66.26;96375.19;5014841;28;19921;-89
2023/07/24 05:31:10;;;;;;;;;;;21.00;73.20;;;20.48;66.29;96375.00;5014994;28;19921;-89
2023/07/24 05:33:38;;;;;;;;;;;21.00;73.20;;;20.53;66.16;96372.06;4998691;28;19927;-89
2023/07/24 05:36:06;;;;;;;;;;;21.10;73.10;;;20.58;66.30;96370.25;4998611;28;19921;-89
2023/07/24 05:38:34;;;;;;;;;;;21.10;73.20;;;20.63;65.78;96365.31;5013791;28;19921;-89
2023/07/24 05:41:03;;;;;;;;;;;21.20;72.80;;;20.69;65.79;96355.63;4998466;28;19921;-89
2023/07/24 05:43:32;;;;;;;;;;;21.30;72.70;;;20.75;66.12;96359.06;4998501;28;19921;-90
2023/07/24 05:46:00;;;;;;;;;;;21.30;72.80;;;20.84;66.02;96356.28;4998523;28;20119;-88
2023/07/24 05:48:28;;;;;;;;;;;21.30;72.80;;;20.91;65.95;96355.75;4998200;28;19921;-89
2023/07/24 05:50:56;;;;;;;;;;;21.40;72.80;;;20.96;65.57;96347.22;4998307;28;19921;-89
2023/07/24 05:53:23;;;;;;;;;;;21.50;72.40;;;21.04;65.11;96343.56;5014605;28;20363;-89
2023/07/24 05:55:58;;;;;;;;;;;21.60;71.80;;;21.11;65.02;96338.28;4998352;28;19921;-89
2023/07/24 05:58:28;;;;;;;;;;;21.70;71.90;;;21.21;64.80;96334.31;4998090;28;20231;-90
2023/07/24 06:01:45;;;;;;;;;;;21.70;71.50;;;21.30;64.35;96337.84;5014361;28;19921;-89
2023/07/24 06:04:35;;;;;;;;;;;21.80;70.90;;;21.39;63.96;96332.22;5017415;28;19921;-89
2023/07/24 06:07:03;;;;;;;;;;;21.90;70.40;;;21.48;63.62;96336.94;4994800;28;20100;-90
2023/07/24 06:09:31;;;;;;;;;;;22.00;70.00;;;21.54;63.36;96328.03;4978516;28;19921;-90
2023/07/24 06:11:59;;;;;;;;;;;22.00;69.70;;;21.61;63.13;96327.53;5000237;28;19927;-90
2023/07/24 06:14:28;;;;;;;;;;;22.10;69.60;;;21.67;62.92;96326.16;4993781;28;19927;-90
2023/07/24 06:17:00;;;;;;;;;;;22.20;68.90;;;21.70;62.50;96327.44;4995335;28;19921;-90
2023/07/24 06:19:29;;;;;;;;;;;22.20;68.70;;;21.76;62.43;96323.28;4994544;28;19937;-89
2023/07/24 06:21:57;;;;;;;;;;;22.30;68.50;;;21.79;62.18;96324.59;4994577;28;20242;-90
2023/07/24 06:24:24;;;;;;;;;;;22.30;68.70;;;21.83;62.31;96326.34;4994577;28;19928;-89
2023/07/24 06:26:52;;;;;;;;;;;22.40;68.80;;;21.88;62.60;96326.16;5010797;28;19921;-90
2023/07/24 06:29:22;;;;;;;;;;;22.40;68.70;;;21.91;62.25;96324.63;4994648;28;19921;-90
2023/07/24 06:31:51;;;;;;;;;;;22.50;68.60;;;21.95;62.19;96320.00;4978354;28;19944;-89
2023/07/24 06:34:19;;;;;;;;;;;22.50;68.60;;;21.97;62.38;96314.91;4994467;28;20213;-88
2023/07/24 06:36:48;;;;;;;;;;;22.50;68.70;;;22.02;62.21;96316.69;4978396;28;19929;-89
2023/07/24 06:39:15;;;;;;;;;;;22.60;68.60;;;22.03;62.15;96313.53;4978123;28;19921;-89
2023/07/24 06:41:43;;;;;;;;;;;22.60;68.40;;;22.09;61.99;96314.13;4994468;28;19928;-90
2023/07/24 06:44:14;;;;;;;;;;;22.60;68.30;;;22.12;62.43;96312.66;4978492;28;20212;-89
2023/07/24 06:46:42;;;;;;;;;;;22.70;68.40;;;22.15;62.18;96323.09;4978137;28;19928;-89
2023/07/24 06:49:11;;;;;;;;;;;22.70;68.40;;;22.19;62.09;96313.72;4995544;28;19922;-90
2023/07/24 06:51:41;;;;;;;;;;;22.70;68.30;;;22.24;62.15;96318.25;4997843;28;19921;-89
2023/07/24 06:54:08;;;;;;;;;;;22.80;68.20;;;22.29;61.76;96315.25;4981656;28;19921;-89
2023/07/24 06:56:36;;;;;;;;;;;22.80;68.00;;;22.34;61.72;96308.63;4997742;28;19922;-89
2023/07/24 06:59:04;;;;;;;;;;;22.80;68.10;;;22.37;61.78;96308.78;4981314;28;20112;-89
2023/07/24 07:01:32;;;;;;;;;;;22.90;68.30;;;22.41;61.93;96300.56;5015174;28;19921;-89
2023/07/24 07:04:00;;;;;;;;;;;22.90;68.20;;;22.45;61.82;96303.47;4997633;28;19927;-89
2023/07/24 07:06:30;;;;;;;;;;;23.00;68.20;;;22.47;61.68;96293.56;4981348;28;19932;-89
2023/07/24 07:08:58;;;;;;;;;;;23.00;68.20;;;22.50;61.82;96290.09;4981251;28;19927;-88
2023/07/24 07:11:25;;;;;;;;;;;23.00;68.20;;;22.56;61.76;96290.69;4981335;28;19921;-89
2023/07/24 07:13:53;;;;;;;;;;;23.10;68.20;;;22.59;61.65;96290.00;4981229;28;19921;-89
2023/07/24 07:16:21;;;;;;;;;;;23.10;68.20;;;22.63;61.53;96296.53;4981200;28;19921;-89
2023/07/24 07:18:49;;;;;;;;;;;23.10;68.10;;;22.66;61.62;96293.03;4997204;28;19921;-89
2023/07/24 07:21:17;;;;;;;;;;;23.20;68.00;;;22.67;61.74;96288.28;4981221;28;19936;-89
2023/07/24 07:23:46;;;;;;;;;;;23.20;67.90;;;22.72;61.73;96290.00;4980939;28;19922;-88
2023/07/24 07:26:14;;;;;;;;;;;23.20;67.80;;;22.77;61.56;96292.59;4997346;28;20124;-89
2023/07/24 07:28:42;;;;;;;;;;;23.20;67.70;;;22.78;61.53;96294.22;4997038;28;20121;-89
2023/07/24 07:31:10;;;;;;;;;;;23.20;67.80;;;22.80;61.00;96291.88;4997028;28;19948;-89
2023/07/24 07:33:38;;;;;;;;;;;23.30;67.60;;;22.81;61.40;96290.72;4997069;28;20209;-88
2023/07/24 07:36:06;;;;;;;;;;;23.30;67.60;;;22.81;61.50;96291.53;4997036;28;19921;-88
2023/07/24 07:38:35;;;;;;;;;;;23.30;67.50;;;22.86;61.58;96296.06;4996998;28;19932;-88
2023/07/24 07:41:06;;;;;;;;;;;23.30;67.60;;;22.88;61.14;96293.75;4996791;28;19921;-88
2023/07/24 07:43:34;;;;;;;;;;;23.40;67.60;;;22.91;61.26;96293.06;4996966;28;19922;-89
2023/07/24 07:46:02;;;;;;;;;;;23.40;67.50;;;22.92;61.76;96289.06;4980685;28;19928;-89
2023/07/24 07:48:30;;;;;;;;;;;23.40;68.30;;;22.95;61.40;96288.38;4996718;28;19925;-88
2023/07/24 07:50:58;;;;;;;;;;;23.50;67.80;;;22.97;61.43;96283.28;4996648;28;20208;-89
2023/07/24 07:53:26;;;;;;;;;;;23.50;67.60;;;22.98;61.24;96275.69;4980567;28;19927;-88
2023/07/24 07:55:58;;;;;;;;;;;23.40;67.30;;;22.99;61.15;96272.56;4996956;28;19928;-88
2023/07/24 07:58:28;;;;;;;;;;;23.50;67.40;;;22.99;61.21;96269.78;4992571;28;19921;-88
2023/07/24 08:00:56;;;;;;;;;;;23.50;67.40;;;23.01;61.05;96279.78;4988359;28;19937;-88
2023/07/24 08:03:24;;;;;;;;;;;23.50;67.10;;;23.03;60.98;96271.88;4988830;28;19921;-88
2023/07/24 08:05:52;;;;;;;;;;;23.50;67.20;;;23.04;61.22;96276.28;4989210;28;19930;-88
2023/07/24 08:08:20;;;;;;;;;;;23.60;67.00;;;23.05;61.28;96275.09;5004622;28;19929;-89
2023/07/24 08:10:47;;;;;;;;;;;23.60;67.00;;;23.05;61.20;96275.09;5000368;28;19921;-88
2023/07/24 08:13:15;;;;;;;;;;;23.60;66.90;;;23.04;60.06;96267.91;4991781;28;19996;-88
2023/07/24 08:15:45;;;;;;;;;;;23.60;66.20;;;23.07;60.60;96278.38;5007895;28;19928;-88
2023/07/24 08:18:13;;;;;;;;;;;23.60;66.40;;;23.07;60.64;96267.19;4986789;28;20217;-88
2023/07/24 08:20:40;;;;;;;;;;;23.60;66.40;;;23.08;60.70;96264.06;4976030;28;19921;-88
2023/07/24 08:23:08;;;;;;;;;;;23.60;66.50;;;23.09;60.41;96264.88;5024848;28;19929;-88
2023/07/24 08:25:36;;;;;;;;;;;23.60;66.50;;;23.09;60.42;96264.88;5008280;28;19933;-90
2023/07/24 08:28:05;;;;;;;;;;;23.60;66.40;;;23.09;60.46;96262.91;4991818;28;19928;-89
2023/07/24 08:30:33;;;;;;;;;;;23.60;66.50;;;23.11;60.49;96268.13;5008337;28;19929;-89
2023/07/24 08:33:02;;;;;;;;;;;23.60;66.10;;;23.10;60.70;96260.91;5010066;28;19921;-88
2023/07/24 08:35:30;;;;;;;;;;;23.70;66.30;;;23.11;60.48;96260.56;5002940;28;19921;-90
2023/07/24 08:37:58;;;;;;;;;;;23.70;66.30;;;23.12;60.63;96255.81;5006481;28;19928;-88
2023/07/24 08:40:27;;;;;;;;;;;23.70;66.20;;;23.11;60.18;96257.75;4991625;28;19928;-88
2023/07/24 08:42:55;;;;;;;;;;;23.70;66.20;;;23.12;60.41;96258.59;4991067;28;19935;-89
2023/07/24 08:45:24;;;;;;;;;;;23.70;66.30;;;23.11;60.47;96256.97;5007925;28;19927;-89
2023/07/24 08:47:52;;;;;;;;;;;23.70;66.40;;;23.11;60.15;96251.38;4990806;28;19948;-88
2023/07/24 08:50:21;;;;;;;;;;;23.70;65.90;;;23.11;60.70;96256.97;5007859;28;19927;-90
2023/07/24 08:52:49;;;;;;;;;;;23.70;66.30;;;23.12;60.90;96253.81;4991327;28;20141;-90
2023/07/24 08:55:17;;;;;;;;;;;23.70;66.40;;;23.11;60.31;96249.38;5007603;28;19921;-90
2023/07/24 08:57:45;;;;;;;;;;;23.70;66.30;;;23.12;60.60;96241.84;5007640;28;20499;-89
2023/07/24 09:00:14;;;;;;;;;;;23.70;66.40;;;23.10;60.43;96244.16;5004369;28;20213;-90
2023/07/24 09:02:42;;;;;;;;;;;23.70;66.20;;;23.13;60.23;96243.47;4976774;28;19940;-89
2023/07/24 09:05:12;;;;;;;;;;;23.70;66.10;;;23.12;60.07;96241.84;4991428;28;19929;-90
2023/07/24 09:07:41;;;;;;;;;;;23.70;65.80;;;23.14;60.19;96239.50;5007452;28;19921;-90
2023/07/24 09:10:10;;;;;;;;;;;23.70;65.70;;;23.14;60.08;96239.50;5007680;28;19921;-88
2023/07/24 09:12:38;;;;;;;;;;;23.70;65.60;;;23.14;60.28;96233.94;5007075;28;20125;-90
2023/07/24 09:15:07;;;;;;;;;;;23.70;66.00;;;23.12;60.32;96233.47;5007330;28;19931;-89
2023/07/24 09:17:35;;;;;;;;;;;23.70;66.00;;;23.12;60.34;96231.47;4991302;28;19921;-89
2023/07/24 09:20:03;;;;;;;;;;;23.70;66.00;;;23.11;59.80;96223.47;5007494;28;19922;-89
2023/07/24 09:22:31;;;;;;;;;;;23.70;65.30;;;23.12;59.60;96225.09;5006704;28;20120;-90
2023/07/24 09:25:03;;;;;;;;;;;23.70;65.00;;;23.13;59.46;96221.13;5006992;28;20545;-90
2023/07/24 09:27:31;;;;;;;;;;;23.70;65.00;;;23.14;59.40;96222.75;5023457;28;20209;-89
2023/07/24 09:29:59;;;;;;;;;;;23.70;65.20;;;23.13;59.43;96215.53;5007329;28;19925;-89
2023/07/24 09:32:27;;;;;;;;;;;23.70;64.90;;;23.13;59.44;96215.53;4990929;28;20649;-88
2023/07/24 09:34:55;;;;;;;;;;;23.70;64.90;;;23.15;59.60;96213.22;5007138;28;20106;-90
2023/07/24 09:37:25;;;;;;;;;;;23.70;65.50;;;23.14;59.44;96217.97;5007201;28;19921;-88
2023/07/24 09:39:53;;;;;;;;;;;23.70;64.80;;;23.12;59.46;96213.91;5007453;28;19933;-89
2023/07/24 09:42:30;;;;;;;;;;;23.70;65.30;;;23.11;59.86;96217.88;5007937;28;19921;-89
2023/07/24 09:44:58;;;;;;;;;;;23.70;65.60;;;23.07;60.22;96211.34;5006946;28;19929;-89
2023/07/24 09:47:26;;;;;;;;;;;23.70;65.80;;;23.08;59.95;96218.56;5012883;28;19928;-89
2023/07/24 09:49:54;;;;;;;;;;;23.70;65.70;;;23.07;59.53;96209.38;5013506;28;19929;-88
2023/07/24 09:52:23;;;;;;;;;;;23.60;65.20;;;23.06;59.05;96204.13;5010449;28;19940;-90
2023/07/24 09:54:56;;;;;;;;;;;23.60;64.30;;;23.04;59.65;96196.13;5013925;28;19922;-88
2023/07/24 09:57:25;;;;;;;;;;;23.60;65.10;;;23.03;59.43;96202.06;5030378;28;19927;-89
2023/07/24 09:59:55;;;;;;;;;;;23.60;64.80;;;23.01;59.90;96198.81;4997679;28;19929;-88
2023/07/24 10:02:23;;;;;;;;;;;23.60;65.20;;;23.02;58.55;96198.44;5030316;28;19921;-88
2023/07/24 10:04:51;;;;;;;;;;;23.60;63.80;;;23.02;57.72;96192.88;5009437;23;19922;-83
2023/07/24 10:07:21;;;;;;;;;;;23.60;62.80;;;23.04;56.50;96189.75;4961280;28;19922;-83
2023/07/24 10:09:49;;;;;;;;;;;23.60;61.80;;;23.06;56.50;96188.22;4990944;28;19922;-83
2023/07/24 10:12:18;;;;;;;;;;;23.60;61.90;;;23.07;55.65;96197.41;4975185;28;19928;-83
2023/07/24 11:54:13;;;;;;;;;;;23.70;60.40;;;23.15;55.59;96084.75;4946403;28;28560;-91
2023/07/24 11:56:42;;;;;;;;;;;23.70;61.20;;;23.17;55.30;96092.78;4922748;29;19941;-91
2023/07/24 11:59:11;;;;;;;;;;;23.80;60.50;;;23.16;55.26;96089.19;4919926;29;20409;-91
2023/07/24 12:01:40;;;;;;;;;;;23.70;60.50;;;23.17;55.46;96082.44;4938332;28;19930;-91
2023/07/24 12:04:08;;;;;;;;;;;23.70;60.40;;;23.15;55.01;96081.97;4923970;29;20386;-91
2023/07/24 12:06:36;;;;;;;;;;;23.70;60.30;;;23.17;55.11;96081.59;4937929;29;19956;-90
2023/07/24 12:09:05;;;;;;;;;;;23.70;60.20;;;23.19;54.93;96082.88;4935387;29;19927;-90
2023/07/24 12:11:40;;;;;;;;;;;23.80;60.00;;;23.19;54.88;96082.06;4922402;29;19950;-90
2023/07/24 12:14:08;;;;;;;;;;;23.70;60.10;;;23.19;55.27;96082.06;4922442;29;20114;-89
2023/07/24 12:16:37;;;;;;;;;;;23.80;60.00;;;23.20;54.37;96080.94;4936312;29;19944;-89
2023/07/24 12:19:08;;;;;;;;;;;23.80;59.50;;;23.20;54.97;96075.34;4919391;28;20395;-90
2023/07/24 12:21:36;;;;;;;;;;;23.80;59.70;;;23.20;54.58;96073.34;4921348;29;19937;-90
2023/07/24 12:24:09;;;;;;;;;;;23.80;59.60;;;23.21;54.61;96072.19;4919592;28;20417;-89
2023/07/24 12:26:39;;;;;;;;;;;23.80;59.60;;;23.22;54.82;96071.00;4936235;28;19935;-89
2023/07/24 12:29:07;;;;;;;;;;;23.80;59.70;;;23.22;54.98;96065.44;4938737;29;19931;-89
2023/07/24 12:31:35;;;;;;;;;;;23.80;59.80;;;23.23;54.51;96060.69;4918576;28;19938;-90
2023/07/24 12:34:03;;;;;;;;;;;23.80;59.70;;;23.24;54.73;96060.31;4913903;29;20342;-90
2023/07/24 12:36:32;;;;;;;;;;;23.80;59.60;;;23.25;54.52;96059.13;4916621;29;19927;-89
2023/07/24 12:39:01;;;;;;;;;;;23.80;59.70;;;23.25;54.72;96052.72;4918900;29;19946;-90
2023/07/24 12:41:30;;;;;;;;;;;23.90;59.90;;;23.26;54.90;96051.56;4922273;29;19930;-89
2023/07/24 12:43:59;;;;;;;;;;;23.90;60.00;;;23.26;54.98;96044.00;4936386;29;19942;-89
2023/07/24 12:46:28;;;;;;;;;;;23.90;60.10;;;23.27;54.88;96036.44;4936984;29;19933;-89
2023/07/24 12:48:56;;;;;;;;;;;23.80;59.50;;;23.26;54.20;96034.81;4921789;29;19927;-89
2023/07/24 12:51:24;;;;;;;;;;;23.90;59.50;;;23.29;54.33;96034.91;4921197;29;19930;-89
2023/07/24 12:53:52;;;;;;;;;;;23.90;59.30;;;23.29;54.24;96023.75;4921833;29;19934;-89
2023/07/24 12:56:22;;;;;;;;;;;23.90;59.00;;;23.31;54.07;96037.34;4922168;28;19931;-89
2023/07/24 12:58:54;;;;;;;;;;;23.90;59.10;;;23.33;54.47;96028.59;4921841;29;19926;-89
2023/07/24 13:01:24;;;;;;;;;;;23.90;59.20;;;23.34;54.74;96035.81;4913639;29;19930;-89
2023/07/24 13:03:53;;;;;;;;;;;23.90;59.50;;;23.34;54.77;96035.81;4935288;29;19930;-89
2023/07/24 13:06:21;;;;;;;;;;;23.90;59.60;;;23.36;54.59;96028.72;4938087;29;19926;-90